sensor_id;sensor_type;location;lat;lon;timestamp;temperature;humidity
72919;SHT30;68407;55.694;26.994;2024-02-14T00:04:31;2.6;90.8
72919;SHT30;68407;55.694;26.994;2024-02-14T00:09:59;2.6;90.9
72919;SHT30;68407;55.694;26.994;2024-02-14T00:14:51;2.6;90.9
72919;SHT30;68407;55.694;26.994;2024-02-14T00:19:31;2.6;90.9
72919;SHT30;68407;55.694;26.994;2024-02-14T00:24:31;2.6;90.9
72919;SHT30;68407;55.694;26.994;2024-02-14T00:29:31;2.5;91
72919;SHT30;68407;55.694;26.994;2024-02-14T00:34:59;2.5;91.2
72919;SHT30;68407;55.694;26.994;2024-02-14T00:39:45;2.5;91.1
72919;SHT30;68407;55.694;26.994;2024-02-14T00:44:59;2.5;91.2
72919;SHT30;68407;55.694;26.994;2024-02-14T00:49:45;2.5;91.2
72919;SHT30;68407;55.694;26.994;2024-02-14T00:54:45;2.4;91.2
72919;SHT30;68407;55.694;26.994;2024-02-14T00:59:29;2.4;91.3
72919;SHT30;68407;55.694;26.994;2024-02-14T01:04:19;2.4;91.2
72919;SHT30;68407;55.694;26.994;2024-02-14T01:09:49;2.3;91.3
72919;SHT30;68407;55.694;26.994;2024-02-14T01:14:33;2.4;91.3
72919;SHT30;68407;55.694;26.994;2024-02-14T01:19:19;2.4;91.1
72919;SHT30;68407;55.694;26.994;2024-02-14T01:24:31;2.4;91.1
72919;SHT30;68407;55.694;26.994;2024-02-14T01:29:59;2.4;91
72919;SHT30;68407;55.694;26.994;2024-02-14T01:34:11;2.4;91
72919;SHT30;68407;55.694;26.994;2024-02-14T01:39:51;2.4;90.9
72919;SHT30;68407;55.694;26.994;2024-02-14T01:44:45;2.4;90.8
72919;SHT30;68407;55.694;26.994;2024-02-14T01:49:51;2.4;90.7
72919;SHT30;68407;55.694;26.994;2024-02-14T01:54:31;2.3;90.6
72919;SHT30;68407;55.694;26.994;2024-02-14T01:59:13;2.3;90.9
72919;SHT30;68407;55.694;26.994;2024-02-14T02:04:59;2.3;90.8
72919;SHT30;68407;55.694;26.994;2024-02-14T02:09:59;2.3;90.7
72919;SHT30;68407;55.694;26.994;2024-02-14T02:14:37;2.3;90.5
72919;SHT30;68407;55.694;26.994;2024-02-14T02:20:00;2.3;90.4
72919;SHT30;68407;55.694;26.994;2024-02-14T02:24:59;2.3;90.4
72919;SHT30;68407;55.694;26.994;2024-02-14T02:29:45;2.2;90.3
72919;SHT30;68407;55.694;26.994;2024-02-14T02:34:11;2.2;90.5
72919;SHT30;68407;55.694;26.994;2024-02-14T02:39:19;2.2;90.5
72919;SHT30;68407;55.694;26.994;2024-02-14T02:44:11;2.2;90.5
72919;SHT30;68407;55.694;26.994;2024-02-14T02:49:11;2.2;90.6
72919;SHT30;68407;55.694;26.994;2024-02-14T02:54:19;2.2;90.5
72919;SHT30;68407;55.694;26.994;2024-02-14T02:59:26;2.2;90.4
72919;SHT30;68407;55.694;26.994;2024-02-14T03:04:59;2.2;90.4
72919;SHT30;68407;55.694;26.994;2024-02-14T03:09:26;2.2;90.4
72919;SHT30;68407;55.694;26.994;2024-02-14T03:14:59;2.1;90.5
72919;SHT30;68407;55.694;26.994;2024-02-14T03:19:45;2.1;90.6
72919;SHT30;68407;55.694;26.994;2024-02-14T03:24:51;2.1;90.5
72919;SHT30;68407;55.694;26.994;2024-02-14T03:29:23;2.1;90.5
72919;SHT30;68407;55.694;26.994;2024-02-14T03:34:39;2.1;90.5
72919;SHT30;68407;55.694;26.994;2024-02-14T03:40:00;2.1;90.5
72919;SHT30;68407;55.694;26.994;2024-02-14T03:45:00;2.1;90.6
72919;SHT30;68407;55.694;26.994;2024-02-14T03:49:30;2.2;90.4
72919;SHT30;68407;55.694;26.994;2024-02-14T03:55:00;2.2;90.3
72919;SHT30;68407;55.694;26.994;2024-02-14T04:00:00;2.2;90.4
72919;SHT30;68407;55.694;26.994;2024-02-14T04:04:46;2.1;90.7
72919;SHT30;68407;55.694;26.994;2024-02-14T04:10:00;2.2;90.7
72919;SHT30;68407;55.694;26.994;2024-02-14T04:14:11;2.1;90.7
72919;SHT30;68407;55.694;26.994;2024-02-14T04:19:12;2.1;90.7
72919;SHT30;68407;55.694;26.994;2024-02-14T04:24:23;2;90.8
72919;SHT30;68407;55.694;26.994;2024-02-14T04:29:40;2;90.8
72919;SHT30;68407;55.694;26.994;2024-02-14T04:34:12;2;90.7
72919;SHT30;68407;55.694;26.994;2024-02-14T04:39:40;2;90.7
72919;SHT30;68407;55.694;26.994;2024-02-14T04:44:34;2;90.6
72919;SHT30;68407;55.694;26.994;2024-02-14T04:50:00;2;90.6
72919;SHT30;68407;55.694;26.994;2024-02-14T04:54:46;2;90.7
72919;SHT30;68407;55.694;26.994;2024-02-14T04:59:12;1.9;90.9
72919;SHT30;68407;55.694;26.994;2024-02-14T05:04:32;1.9;90.8
72919;SHT30;68407;55.694;26.994;2024-02-14T05:09:40;2;90.7
72919;SHT30;68407;55.694;26.994;2024-02-14T05:14:32;2;90.5
72919;SHT30;68407;55.694;26.994;2024-02-14T05:19:12;2;90.4
72919;SHT30;68407;55.694;26.994;2024-02-14T05:24:50;2;90.4
72919;SHT30;68407;55.694;26.994;2024-02-14T05:29:44;2;90.3
72919;SHT30;68407;55.694;26.994;2024-02-14T05:34:58;2;90.3
72919;SHT30;68407;55.694;26.994;2024-02-14T05:39:12;2;90.2
72919;SHT30;68407;55.694;26.994;2024-02-14T05:44:52;2;90.1
72919;SHT30;68407;55.694;26.994;2024-02-14T05:49:38;2;90.1
72919;SHT30;68407;55.694;26.994;2024-02-14T05:54:12;2;89.9
72919;SHT30;68407;55.694;26.994;2024-02-14T05:59:38;2.1;89.9
72919;SHT30;68407;55.694;26.994;2024-02-14T06:04:30;2.1;89.7
72919;SHT30;68407;55.694;26.994;2024-02-14T06:10:00;2.1;89.7
72919;SHT30;68407;55.694;26.994;2024-02-14T06:14:12;2.2;89.6
72919;SHT30;68407;55.694;26.994;2024-02-14T06:19:46;2.2;89.5
72919;SHT30;68407;55.694;26.994;2024-02-14T06:25:00;2.2;89.5
72919;SHT30;68407;55.694;26.994;2024-02-14T06:30:00;2.2;89.5
72919;SHT30;68407;55.694;26.994;2024-02-14T06:34:46;2.2;89.6
72919;SHT30;68407;55.694;26.994;2024-02-14T06:39:40;2.2;89.5
72919;SHT30;68407;55.694;26.994;2024-02-14T06:44:58;2.2;89.4
72919;SHT30;68407;55.694;26.994;2024-02-14T06:49:15;2.2;89.4
72919;SHT30;68407;55.694;26.994;2024-02-14T06:54:28;2.1;89.4
72919;SHT30;68407;55.694;26.994;2024-02-14T06:59:40;2;89.5
72919;SHT30;68407;55.694;26.994;2024-02-14T07:04:46;2;89.4
72919;SHT30;68407;55.694;26.994;2024-02-14T07:10:00;2;89.2
72919;SHT30;68407;55.694;26.994;2024-02-14T07:14:38;2;89
72919;SHT30;68407;55.694;26.994;2024-02-14T07:19:52;2.1;88.6
72919;SHT30;68407;55.694;26.994;2024-02-14T07:24:30;2.1;88.2
72919;SHT30;68407;55.694;26.994;2024-02-14T07:29:24;2.1;87.9
72919;SHT30;68407;55.694;26.994;2024-02-14T07:34:28;2.2;87.9
72919;SHT30;68407;55.694;26.994;2024-02-14T07:39:20;2.3;87.6
72919;SHT30;68407;55.694;26.994;2024-02-14T07:44:38;2.4;87.2
72919;SHT30;68407;55.694;26.994;2024-02-14T07:49:20;2.5;86.9
72919;SHT30;68407;55.694;26.994;2024-02-14T07:54:46;2.4;87
72919;SHT30;68407;55.694;26.994;2024-02-14T08:00:00;2.5;86.8
72919;SHT30;68407;55.694;26.994;2024-02-14T08:04:54;2.5;86.3
72919;SHT30;68407;55.694;26.994;2024-02-14T08:09:26;2.4;86.3
72919;SHT30;68407;55.694;26.994;2024-02-14T08:14:40;2.5;86.5
72919;SHT30;68407;55.694;26.994;2024-02-14T08:19:40;2.5;86.4
72919;SHT30;68407;55.694;26.994;2024-02-14T08:24:52;2.6;85.9
72919;SHT30;68407;55.694;26.994;2024-02-14T08:29:32;2.5;85.5
72919;SHT30;68407;55.694;26.994;2024-02-14T08:34:28;2.6;85.3
72919;SHT30;68407;55.694;26.994;2024-02-14T08:39:12;2.7;85.1
72919;SHT30;68407;55.694;26.994;2024-02-14T08:45:00;2.8;84.4
72919;SHT30;68407;55.694;26.994;2024-02-14T08:49:40;2.8;84.1
72919;SHT30;68407;55.694;26.994;2024-02-14T08:55:00;2.8;83.9
72919;SHT30;68407;55.694;26.994;2024-02-14T08:59:38;2.7;83.5
72919;SHT30;68407;55.694;26.994;2024-02-14T09:04:46;2.7;83
72919;SHT30;68407;55.694;26.994;2024-02-14T09:09:20;2.6;81.8
72919;SHT30;68407;55.694;26.994;2024-02-14T09:14:12;2.3;81.4
72919;SHT30;68407;55.694;26.994;2024-02-14T09:19:20;2.2;82
72919;SHT30;68407;55.694;26.994;2024-02-14T09:24:26;2.2;82
72919;SHT30;68407;55.694;26.994;2024-02-14T09:29:12;2.3;81.7
72919;SHT30;68407;55.694;26.994;2024-02-14T09:34:16;2.5;81.9
72919;SHT30;68407;55.694;26.994;2024-02-14T09:40:00;2.5;81.9
72919;SHT30;68407;55.694;26.994;2024-02-14T09:44:32;2.9;81.5
72919;SHT30;68407;55.694;26.994;2024-02-14T09:50:00;3;80.8
72919;SHT30;68407;55.694;26.994;2024-02-14T09:54:46;2.9;80.7
72919;SHT30;68407;55.694;26.994;2024-02-14T09:59:52;3.1;80.8
72919;SHT30;68407;55.694;26.994;2024-02-14T10:04:32;3.1;80.2
72919;SHT30;68407;55.694;26.994;2024-02-14T10:09:40;2.8;81.1
72919;SHT30;68407;55.694;26.994;2024-02-14T10:15:00;2.9;81.3
72919;SHT30;68407;55.694;26.994;2024-02-14T10:20:00;2.9;80.6
72919;SHT30;68407;55.694;26.994;2024-02-14T10:25:00;3;80.7
72919;SHT30;68407;55.694;26.994;2024-02-14T10:29:59;3.2;80.4
72919;SHT30;68407;55.694;26.994;2024-02-14T10:35:00;3.2;80.3
72919;SHT30;68407;55.694;26.994;2024-02-14T10:39:46;3.3;80.1
72919;SHT30;68407;55.694;26.994;2024-02-14T10:45:00;3.2;79.3
72919;SHT30;68407;55.694;26.994;2024-02-14T10:49:40;2.9;79.5
72919;SHT30;68407;55.694;26.994;2024-02-14T10:54:12;3;79.9
72919;SHT30;68407;55.694;26.994;2024-02-14T10:59:26;3.2;79.7
72919;SHT30;68407;55.694;26.994;2024-02-14T11:04:32;3.3;79.8
72919;SHT30;68407;55.694;26.994;2024-02-14T11:09:38;3.3;79.7
72919;SHT30;68407;55.694;26.994;2024-02-14T11:14:41;3.2;79.8
72919;SHT30;68407;55.694;26.994;2024-02-14T11:19:13;3.1;80
72919;SHT30;68407;55.694;26.994;2024-02-14T11:24:28;3.1;80.4
72919;SHT30;68407;55.694;26.994;2024-02-14T11:29:50;3.1;80.7
72919;SHT30;68407;55.694;26.994;2024-02-14T11:34:52;3.2;80.4
72919;SHT30;68407;55.694;26.994;2024-02-14T11:39:32;3.2;80.2
72919;SHT30;68407;55.694;26.994;2024-02-14T11:44:40;3.2;79.8
72919;SHT30;68407;55.694;26.994;2024-02-14T11:50:00;3.1;79.7
72919;SHT30;68407;55.694;26.994;2024-02-14T11:55:00;3;80
72919;SHT30;68407;55.694;26.994;2024-02-14T11:59:12;3;80.5
72919;SHT30;68407;55.694;26.994;2024-02-14T12:05:00;3;80.7
72919;SHT30;68407;55.694;26.994;2024-02-14T12:10:00;3;80.5
72919;SHT30;68407;55.694;26.994;2024-02-14T12:14:14;3;80.5
72919;SHT30;68407;55.694;26.994;2024-02-14T12:20:05;3.1;80.5
72919;SHT30;68407;55.694;26.994;2024-02-14T12:24:26;3.1;80.8
72919;SHT30;68407;55.694;26.994;2024-02-14T12:29:12;3.1;81.1
72919;SHT30;68407;55.694;26.994;2024-02-14T12:34:27;3;81.3
72919;SHT30;68407;55.694;26.994;2024-02-14T12:39:32;2.9;81.2
72919;SHT30;68407;55.694;26.994;2024-02-14T12:44:20;2.6;81.3
72919;SHT30;68407;55.694;26.994;2024-02-14T12:49:32;2.4;81.9
72919;SHT30;68407;55.694;26.994;2024-02-14T12:55:00;2.4;82
72919;SHT30;68407;55.694;26.994;2024-02-14T13:00:00;2.6;82.1
72919;SHT30;68407;55.694;26.994;2024-02-14T13:04:46;2.5;82.1
72919;SHT30;68407;55.694;26.994;2024-02-14T13:09:24;2.5;82.6
72919;SHT30;68407;55.694;26.994;2024-02-14T13:14:20;2.6;82.6
72919;SHT30;68407;55.694;26.994;2024-02-14T13:19:14;2.6;82.5
72919;SHT30;68407;55.694;26.994;2024-02-14T13:24:52;2.6;82.6
72919;SHT30;68407;55.694;26.994;2024-02-14T13:29:32;2.6;82.7
72919;SHT30;68407;55.694;26.994;2024-02-14T13:35:00;2.6;83
72919;SHT30;68407;55.694;26.994;2024-02-14T13:39:46;2.5;82.7
72919;SHT30;68407;55.694;26.994;2024-02-14T13:45:00;2.4;82.7
72919;SHT30;68407;55.694;26.994;2024-02-14T13:49:52;2.3;83.3
72919;SHT30;68407;55.694;26.994;2024-02-14T13:54:52;2.2;83.4
72919;SHT30;68407;55.694;26.994;2024-02-14T13:59:38;2.3;83.7
72919;SHT30;68407;55.694;26.994;2024-02-14T14:04:12;2.4;83.8
72919;SHT30;68407;55.694;26.994;2024-02-14T14:09:30;2.3;84.1
72919;SHT30;68407;55.694;26.994;2024-02-14T14:14:12;2.1;85.1
72919;SHT30;68407;55.694;26.994;2024-02-14T14:19:12;2.1;85.7
72919;SHT30;68407;55.694;26.994;2024-02-14T14:24:26;2.3;85.5
72919;SHT30;68407;55.694;26.994;2024-02-14T14:29:28;2.5;85.2
72919;SHT30;68407;55.694;26.994;2024-02-14T14:34:22;2.4;85.2
72919;SHT30;68407;55.694;26.994;2024-02-14T14:40:00;2.5;85.1
72919;SHT30;68407;55.694;26.994;2024-02-14T14:44:18;2.5;84.9
72919;SHT30;68407;55.694;26.994;2024-02-14T14:49:38;2.5;84.8
72919;SHT30;68407;55.694;26.994;2024-02-14T14:55:00;2.4;84.9
72919;SHT30;68407;55.694;26.994;2024-02-14T14:59:40;2.5;84.8
72919;SHT30;68407;55.694;26.994;2024-02-14T15:04:32;2.4;84.8
72919;SHT30;68407;55.694;26.994;2024-02-14T15:09:40;2.4;84.8
72919;SHT30;68407;55.694;26.994;2024-02-14T15:20:00;2.2;85.3
72919;SHT30;68407;55.694;26.994;2024-02-14T15:24:38;2.2;85.5
72919;SHT30;68407;55.694;26.994;2024-02-14T15:30:00;2.2;85.6
72919;SHT30;68407;55.694;26.994;2024-02-14T15:34:20;2.1;85.7
72919;SHT30;68407;55.694;26.994;2024-02-14T15:39:20;2;86.1
72919;SHT30;68407;55.694;26.994;2024-02-14T15:44:20;2.1;86.1
72919;SHT30;68407;55.694;26.994;2024-02-14T15:49:12;2.1;86
72919;SHT30;68407;55.694;26.994;2024-02-14T15:54:12;2.1;86.1
72919;SHT30;68407;55.694;26.994;2024-02-14T15:59:38;2;86.1
72919;SHT30;68407;55.694;26.994;2024-02-14T16:04:12;2;86.2
72919;SHT30;68407;55.694;26.994;2024-02-14T16:09:26;2;86.4
72919;SHT30;68407;55.694;26.994;2024-02-14T16:14:58;2;86.3
72919;SHT30;68407;55.694;26.994;2024-02-14T16:19:16;2;86.4
72919;SHT30;68407;55.694;26.994;2024-02-14T16:24:36;1.9;86.5
72919;SHT30;68407;55.694;26.994;2024-02-14T16:29:44;1.9;86.7
72919;SHT30;68407;55.694;26.994;2024-02-14T16:34:22;1.9;86.7
72919;SHT30;68407;55.694;26.994;2024-02-14T16:39:28;1.9;86.8
72919;SHT30;68407;55.694;26.994;2024-02-14T16:44:32;1.9;86.7
72919;SHT30;68407;55.694;26.994;2024-02-14T16:49:58;1.8;86.8
72919;SHT30;68407;55.694;26.994;2024-02-14T16:54:40;1.8;86.8
72919;SHT30;68407;55.694;26.994;2024-02-14T16:59:38;1.7;86.9
72919;SHT30;68407;55.694;26.994;2024-02-14T17:05:00;1.6;87.1
72919;SHT30;68407;55.694;26.994;2024-02-14T17:09:34;1.6;87.2
72919;SHT30;68407;55.694;26.994;2024-02-14T17:14:14;1.6;87.3
72919;SHT30;68407;55.694;26.994;2024-02-14T17:19:58;1.6;87.3
72919;SHT30;68407;55.694;26.994;2024-02-14T17:24:38;1.6;87.2
72919;SHT30;68407;55.694;26.994;2024-02-14T17:29:12;1.6;87.2
72919;SHT30;68407;55.694;26.994;2024-02-14T17:34:12;1.6;87.3
72919;SHT30;68407;55.694;26.994;2024-02-14T17:39:18;1.6;87.3
72919;SHT30;68407;55.694;26.994;2024-02-14T17:44:12;1.7;87.1
72919;SHT30;68407;55.694;26.994;2024-02-14T17:49:28;1.7;87.1
72919;SHT30;68407;55.694;26.994;2024-02-14T17:54:26;1.6;87
72919;SHT30;68407;55.694;26.994;2024-02-14T18:00:00;1.4;87.7
72919;SHT30;68407;55.694;26.994;2024-02-14T18:04:46;1.3;88.1
72919;SHT30;68407;55.694;26.994;2024-02-14T18:09:26;1.3;87.9
72919;SHT30;68407;55.694;26.994;2024-02-14T18:14:12;1.2;87.6
72919;SHT30;68407;55.694;26.994;2024-02-14T18:19:38;1;87.5
72919;SHT30;68407;55.694;26.994;2024-02-14T18:24:50;0.8;87.6
72919;SHT30;68407;55.694;26.994;2024-02-14T18:29:12;0.7;87.6
72919;SHT30;68407;55.694;26.994;2024-02-14T18:34:50;0.7;88.1
72919;SHT30;68407;55.694;26.994;2024-02-14T18:39:32;0.6;88.3
72919;SHT30;68407;55.694;26.994;2024-02-14T18:44:50;0.5;88.5
72919;SHT30;68407;55.694;26.994;2024-02-14T18:49:19;0.4;88.8
72919;SHT30;68407;55.694;26.994;2024-02-14T18:54:40;0.4;88.9
72919;SHT30;68407;55.694;26.994;2024-02-14T18:59:38;0.4;88.8
72919;SHT30;68407;55.694;26.994;2024-02-14T19:04:52;0.4;88.8
72919;SHT30;68407;55.694;26.994;2024-02-14T19:09:38;0.4;88.9
72919;SHT30;68407;55.694;26.994;2024-02-14T19:14:20;0.5;89
72919;SHT30;68407;55.694;26.994;2024-02-14T19:19:12;0.5;88.8
72919;SHT30;68407;55.694;26.994;2024-02-14T19:24:12;0.5;88.8
72919;SHT30;68407;55.694;26.994;2024-02-14T19:29:14;0.4;88.6
72919;SHT30;68407;55.694;26.994;2024-02-14T19:35:00;0.3;88.9
72919;SHT30;68407;55.694;26.994;2024-02-14T19:40:00;0.3;89.3
72919;SHT30;68407;55.694;26.994;2024-02-14T19:44:12;0.4;89.4
72919;SHT30;68407;55.694;26.994;2024-02-14T19:49:40;0.5;89.3
72919;SHT30;68407;55.694;26.994;2024-02-14T19:55:00;0.7;89.2
72919;SHT30;68407;55.694;26.994;2024-02-14T19:59:52;0.8;89.3
72919;SHT30;68407;55.694;26.994;2024-02-14T20:04:12;0.9;88.9
72919;SHT30;68407;55.694;26.994;2024-02-14T20:09:40;0.9;88.7
72919;SHT30;68407;55.694;26.994;2024-02-14T20:14:46;0.8;88.7
72919;SHT30;68407;55.694;26.994;2024-02-14T20:20:00;0.8;88.6
72919;SHT30;68407;55.694;26.994;2024-02-14T20:24:41;0.8;88.7
72919;SHT30;68407;55.694;26.994;2024-02-14T20:29:22;0.8;88.7
72919;SHT30;68407;55.694;26.994;2024-02-14T20:34:21;0.8;88.6
72919;SHT30;68407;55.694;26.994;2024-02-14T20:39:18;0.8;88.3
72919;SHT30;68407;55.694;26.994;2024-02-14T20:44:12;0.7;88.1
72919;SHT30;68407;55.694;26.994;2024-02-14T20:49:40;0.6;88.2
72919;SHT30;68407;55.694;26.994;2024-02-14T20:54:12;0.5;88.8
72919;SHT30;68407;55.694;26.994;2024-02-14T20:59:12;0.5;88.6
72919;SHT30;68407;55.694;26.994;2024-02-14T21:04:46;0.5;88.2
72919;SHT30;68407;55.694;26.994;2024-02-14T21:09:54;0.4;88.5
72919;SHT30;68407;55.694;26.994;2024-02-14T21:15:00;0.3;88.5
72919;SHT30;68407;55.694;26.994;2024-02-14T21:19:12;0.2;88.3
72919;SHT30;68407;55.694;26.994;2024-02-14T21:24:14;0;88.6
72919;SHT30;68407;55.694;26.994;2024-02-14T21:29:40;-0.1;89.1
72919;SHT30;68407;55.694;26.994;2024-02-14T21:34:52;-0.1;89.1
72919;SHT30;68407;55.694;26.994;2024-02-14T21:39:40;-0.1;88.9
72919;SHT30;68407;55.694;26.994;2024-02-14T21:44:34;-0.1;89.1
72919;SHT30;68407;55.694;26.994;2024-02-14T21:49:32;-0.2;89.2
72919;SHT30;68407;55.694;26.994;2024-02-14T21:55:00;-0.4;89
72919;SHT30;68407;55.694;26.994;2024-02-14T21:59:12;-0.6;88.9
72919;SHT30;68407;55.694;26.994;2024-02-14T22:05:00;-0.7;89
72919;SHT30;68407;55.694;26.994;2024-02-14T22:09:38;-0.8;88.8
72919;SHT30;68407;55.694;26.994;2024-02-14T22:14:46;-0.9;88.8
72919;SHT30;68407;55.694;26.994;2024-02-14T22:20:00;-0.9;88.8
72919;SHT30;68407;55.694;26.994;2024-02-14T22:24:26;-1.1;88.9
72919;SHT30;68407;55.694;26.994;2024-02-14T22:29:20;-1.1;89
72919;SHT30;68407;55.694;26.994;2024-02-14T22:34:12;-1.1;89.1
72919;SHT30;68407;55.694;26.994;2024-02-14T22:39:12;-1;89.2
72919;SHT30;68407;55.694;26.994;2024-02-14T22:44:40;-0.8;89.3
72919;SHT30;68407;55.694;26.994;2024-02-14T22:50:00;-0.7;89.3
72919;SHT30;68407;55.694;26.994;2024-02-14T22:54:46;-0.5;89.2
72919;SHT30;68407;55.694;26.994;2024-02-14T23:00:00;-0.4;89.2
72919;SHT30;68407;55.694;26.994;2024-02-14T23:04:46;-0.3;89.3
72919;SHT30;68407;55.694;26.994;2024-02-14T23:09:52;0;89.7
72919;SHT30;68407;55.694;26.994;2024-02-14T23:14:32;0.1;89.4
72919;SHT30;68407;55.694;26.994;2024-02-14T23:19:34;0.1;89.1
72919;SHT30;68407;55.694;26.994;2024-02-14T23:24:34;0.2;89.1
72919;SHT30;68407;55.694;26.994;2024-02-14T23:30:00;0.2;88.8
72919;SHT30;68407;55.694;26.994;2024-02-14T23:34:38;0.2;88.7
72919;SHT30;68407;55.694;26.994;2024-02-14T23:40:00;0.2;88.6
72919;SHT30;68407;55.694;26.994;2024-02-14T23:45:00;0.3;88.6
72919;SHT30;68407;55.694;26.994;2024-02-14T23:50:00;0.4;88.5
72919;SHT30;68407;55.694;26.994;2024-02-14T23:55:00;0.5;88.7
72919;SHT30;68407;55.694;26.994;2024-02-14T23:59:52;0.4;88.4
